Nearby METAR Reports

 

KMNN - Marion, Ohio, USA
Distance from station: ENE 4mi, 6km
Updated: 04/24/2019 8:53pm
Mostly cloudy
Mostly cloudy
 Wind from calm
Wind: Calm
Temperature: 55°F , 13°C
Dew Point: 37°F , 3°C
Humidity: 51%
Barometer: 29.93 inHg , 1013.5 hPa
Clouds: Mostly cloudy
Visibility: 10 miles , 16 km
Cloud details: Partly cloudy 7000 ft
Partly cloudy 9500 ft
Mostly cloudy 11000 ft
2019/04/25 00:53 KMNN 250053Z AUTO 00000KT 10SM SCT070 SCT095 BKN110 13/03 A2993 RMK AO2 SLP137 T01330033
KDLZ - Delaware, Ohio, USA
Distance from station: S 21mi, 34km
Updated: 04/24/2019 9:35pm
Overcast
Overcast
 Wind from calm
Wind: Calm
Temperature: 55°F , 13°C
Dew Point: 43°F , 6°C
Humidity: 63%
Barometer: 29.92 inHg , 1013.2 hPa
Clouds: Overcast
Visibility: 10 miles , 16 km
Cloud details: Partly cloudy 4400 ft
Partly cloudy 5500 ft
Overcast 9000 ft
2019/04/25 01:35 KDLZ 250135Z AUTO 00000KT 10SM SCT044 SCT055 OVC090 13/06 A2992 RMK AO2
 
KMRT - Marysville, Ohio, USA
Distance from station: SSW 28mi, 45km
Updated: 04/24/2019 9:35pm
Overcast
Overcast
 Wind from calm
Wind: Calm
Temperature: 55°F , 13°C
Dew Point: 39°F , 4°C
Humidity: 55%
Barometer: 29.92 inHg , 1013.2 hPa
Clouds: Overcast
Visibility: 10 miles , 16 km
Cloud details: Mostly cloudy 4300 ft
Mostly cloudy 5500 ft
Overcast 8000 ft
2019/04/25 01:35 KMRT 250135Z AUTO 00000KT 10SM BKN043 BKN055 OVC080 13/04 A2992 RMK AO2 T01300039
KOSU - Columbus/St Univ, Ohio, USA
Distance from station: S 35mi, 56km
Updated: 04/24/2019 8:53pm
Few Clouds
Few Clouds
 Wind from N
Wind: N 3 mph , 6 km/h
Temperature: 54°F , 12°C
Dew Point: 41°F , 5°C
Humidity: 63%
Barometer: 29.92 inHg , 1013.2 hPa
Clouds: Few Clouds
Visibility: 10 miles , 16 km
Cloud details: Few Clouds 4400 ft
2019/04/25 00:53 KOSU 250053Z 36003KT 10SM FEW044 12/05 A2992 RMK AO2 SLP133 T01220050
 
KMFD - Mansfield, Ohio, USA
Distance from station: ENE 36mi, 57km
Updated: 04/24/2019 8:52pm
Overcast
Overcast
 Wind from N
Wind: N 3 mph , 6 km/h
Temperature: 55°F , 13°C
Dew Point: 43°F , 6°C
Humidity: 63%
Barometer: 29.94 inHg , 1013.9 hPa
Clouds: Overcast
Visibility: 10 miles , 16 km
Cloud details: Overcast 6500 ft
2019/04/25 00:52 KMFD 250052Z 35003KT 10SM OVC065 13/06 A2994 RMK AO2 SLP139 T01330056
K4I3 - Mt Vernon/Knox, Ohio, USA
Distance from station: ESE 36mi, 58km
Updated: 04/24/2019 9:35pm
Mostly cloudy
Mostly cloudy
 Wind from calm
Wind: Calm
Temperature: 55°F , 13°C
Dew Point: 43°F , 6°C
Humidity: 63%
Barometer: 29.94 inHg , 1013.9 hPa
Clouds: Mostly cloudy
Visibility: 10 miles , 16 km
Cloud details: Partly cloudy 4900 ft
Mostly cloudy 7000 ft
2019/04/25 01:35 K4I3 250135Z AUTO 00000KT 10SM SCT049 BKN070 13/06 A2994 RMK AO2
 
KEDJ - Bellefontaine, Ohio, USA
Distance from station: WSW 39mi, 63km
Updated: 04/24/2019 9:35pm
Overcast
Overcast
 Wind from SE
Wind: SE 5 mph , 7 km/h
Temperature: 54°F , 12°C
Dew Point: 36°F , 2°C
Humidity: 51%
Barometer: 29.93 inHg , 1013.5 hPa
Clouds: Overcast
Visibility: 10 miles , 16 km
Cloud details: Overcast 3000 ft
2019/04/25 01:35 KEDJ 250135Z AUTO 13004KT 10SM OVC030 12/02 A2993 RMK AO1
KFDY - Findlay, Ohio, USA
Distance from station: NW 41mi, 66km
Updated: 04/24/2019 8:53pm
Mostly cloudy
Mostly cloudy
 Wind from ESE
Wind: ESE 3 mph , 6 km/h
Temperature: 57°F , 14°C
Dew Point: 37°F , 3°C
Humidity: 48%
Barometer: 29.91 inHg , 1012.9 hPa
Clouds: Mostly cloudy
Visibility: 10 miles , 16 km
Cloud details: Mostly cloudy 5000 ft
2019/04/25 00:53 KFDY 250053Z AUTO 11003KT 10SM BKN050 14/03 A2991 RMK AO2 SLP124 T01440028
 
KCMH - Columbus, Ohio, USA
Distance from station: SSE 43mi, 69km
Updated: 04/24/2019 8:51pm
Overcast
Overcast
 Wind from ENE
Wind: ENE 3 mph , 6 km/h
Temperature: 57°F , 14°C
Dew Point: 37°F , 3°C
Humidity: 48%
Barometer: 29.91 inHg , 1012.9 hPa
Clouds: Overcast
Visibility: 10 miles , 16 km
Cloud details: Few Clouds 4500 ft
Few Clouds 8000 ft
Overcast 14000 ft
2019/04/25 00:51 KCMH 250051Z 07003KT 10SM FEW045 FEW080 OVC140 14/03 A2991 RMK AO2 SLP130 T01390033
KAOH - Lima, Ohio, USA
Distance from station: W 47mi, 76km
Updated: 04/24/2019 8:53pm
Few Clouds
Few Clouds
 Wind from SE
Wind: SE 3 mph , 6 km/h
Temperature: 55°F , 13°C
Dew Point: 39°F , 4°C
Humidity: 55%
Barometer: 29.91 inHg , 1012.9 hPa
Clouds: Few Clouds
Visibility: 10 miles , 16 km
Cloud details: Few Clouds 11000 ft
2019/04/25 00:53 KAOH 250053Z AUTO 14003KT 10SM FEW110 13/04 A2991 RMK AO2 SLP130 T01280044
 
KTZR - Columbus/Bolton, Ohio, USA
Distance from station: S 48mi, 77km
Updated: 04/24/2019 9:35pm
Drizzle, Overcast
Drizzle, Overcast
 Wind from NE
Wind: NE 3 mph , 6 km/h
Temperature: 55°F , 13°C
Dew Point: 45°F , 7°C
Humidity: 67%
Barometer: 29.93 inHg , 1013.5 hPa
Summary: Drizzle
Clouds: Overcast
Visibility: 10 miles , 16 km
Cloud details: Partly cloudy 7000 ft
Mostly cloudy 7500 ft
Overcast 10000 ft
2019/04/25 01:35 KTZR 250135Z AUTO 04003KT 10SM DZ SCT070 BKN075 OVC100 13/07 A2993 RMK AO2 T01310067
KUYF - London, Ohio, USA
Distance from station: SSW 49mi, 78km
Updated: 04/24/2019 9:35pm
Mostly cloudy
Mostly cloudy
 Wind from NE
Wind: NE 5 mph , 7 km/h
Temperature: 54°F , 12°C
Dew Point: 41°F , 5°C
Humidity: 63%
Barometer: 29.92 inHg , 1013.2 hPa
Clouds: Mostly cloudy
Visibility: 10 miles , 16 km
Cloud details: Mostly cloudy 6000 ft
Mostly cloudy 8000 ft
Mostly cloudy 12000 ft
2019/04/25 01:35 KUYF 250135Z AUTO 04004KT 10SM BKN060 BKN080 BKN120 12/05 A2992 RMK AO2